Latest Coastal Weather Observations for Darwin Airport

IDD60701

Issued at 11:11 am CST Friday 4 September 2015 (issued every 10 minutes, with the page automatically refreshed every 10 minutes)

About coastal observations | Map of coastal stations | Coastal observations for NT | Marine services | Other Formats
Station Details ID: 014015 Name: DARWIN AIRPORT Lat: -12.42 Lon: 130.89 Height: 30.4 m
Data from the previous 72 hours. | See also: Recent months at Darwin Airport
Date/Time
CST
Temp

°C
Wind Pressure Rain
since 9am
mm
Weather Cloud Vis
km
Sea
Height
m
Swell
Dir
 
Speed
knots
Gust
knots
hPa Trend Height
m
Period
s
Dir
04/11:00am 29.7 ENE 7 9 1017.3 - 0.0 - Mostly clear 10 - - - -
04/10:30am 29.0 NNE 7 9 1017.7 - 0.0 - Mostly clear 10 - - - -
04/10:00am 28.6 NE 9 14 1017.8 - 0.0 - Mostly clear 10 - - - -
04/09:30am 28.2 NNE 9 11 1017.7 - 0.0 - Mostly clear 10 - - - -
04/09:00am 27.5 NE 8 10 1017.5 - 0.0 - Mostly clear 10 - - - -
04/08:30am 26.8 NE 7 9 1017.3 - 0.0 - - 8 - - - -
04/08:21am 26.3 NE 7 9 1017.2 - 0.0 - - 8 - - - -
04/08:00am 25.3 ENE 6 8 1017.1 - 0.0 - - 7 - - - -
04/07:30am 23.6 ENE 5 7 1016.7 - 0.0 - - 7 - - - -
04/07:00am 22.2 NE 6 8 1016.3 - 0.0 - - 6 - - - -
04/06:30am 22.4 ENE 5 6 1016.1 - 0.0 Smoke Mostly clear 5 - - - -
04/06:00am 22.9 ENE 7 8 1015.5 R 0.0 Smoke Clear 7 - - - -
04/05:30am 23.1 NE 7 9 1015.6 - 0.0 - - 6 - - - -
04/05:00am 23.4 NE 9 10 1015.4 - 0.0 - - 5 - - - -
04/04:49am 23.5 NE 8 10 1015.3 - 0.0 - - 6 - - - -
04/04:30am 23.3 NE 7 8 1015.2 - 0.0 - - 10 - - - -
04/04:00am 22.7 N 5 6 1015.0 - 0.0 - - 10 - - - -
04/03:30am 23.0 N 4 5 1015.0 - 0.0 - - 10 - - - -
04/03:00am 23.4 N 5 6 1014.7 F 0.0 Fine Clear 30 - - - -
04/02:30am 23.5 N 5 6 1015.2 - 0.0 - - 10 - - - -
04/02:00am 23.3 N 4 5 1015.5 - 0.0 - - 10 - - - -
04/01:30am 23.8 N 4 4 1015.7 - 0.0 - Mostly clear 10 - - - -
04/01:00am 24.1 N 4 5 1016.0 - 0.0 - Mostly clear 10 - - - -
04/12:30am 24.5 N 4 5 1016.1 - 0.0 - - 10 - - - -
04/12:00am 25.2 NNW 5 6 1016.0 R 0.0 Smoke Clear 30 - - - -
 
Date/Time
CST
Temp

°C
Wind Pressure Rain
since 9am
mm
Weather Cloud Vis
km
Sea
Height
m
Swell
Dir
 
Speed
knots
Gust
knots
hPa Trend Height
m
Period
s
Dir
03/11:30pm 26.2 WNW 6 7 1016.2 - 0.0 - - 10 - - - -
03/11:00pm 26.2 WNW 7 9 1015.9 - 0.0 - - 10 - - - -
03/10:30pm 26.3 WNW 8 9 1015.8 - 0.0 - - 10 - - - -
03/10:00pm 26.5 WNW 8 10 1015.6 - 0.0 - - 10 - - - -
03/09:30pm 26.6 WNW 7 10 1015.6 - 0.0 - - 10 - - - -
03/09:00pm 26.7 WNW 8 10 1015.0 S 0.0 Smoke Clear 30 - - - -
03/08:30pm 26.9 WNW 8 9 1015.0 - 0.0 - - 10 - - - -
03/08:00pm 27.3 WNW 8 9 1014.8 - 0.0 - - 10 - - - -
03/07:30pm 27.7 WNW 8 10 1014.5 - 0.0 - - 10 - - - -
03/07:00pm 27.8 NW 9 12 1014.2 - 0.0 - - 10 - - - -
03/06:30pm 28.4 NW 10 13 1013.8 - 0.0 - - 10 - - - -
03/06:00pm 29.1 NW 10 11 1013.2 R 0.0 Smoke Mostly clear 30 - - - -
03/05:30pm 29.7 WNW 10 13 1013.4 - 0.0 - Mostly clear 10 - - - -
03/05:00pm 30.3 WNW 11 14 1013.1 - 0.0 - Mostly clear 10 - - - -
03/04:30pm 30.1 WNW 13 15 1012.9 - 0.0 - Mostly clear 10 - - - -
03/04:00pm 31.3 NW 13 15 1013.0 - 0.0 - Mostly clear 10 - - - -
03/03:30pm 31.4 WNW 12 16 1013.2 - 0.0 - Mostly clear 10 - - - -
03/03:00pm 31.5 WNW 11 15 1013.2 R 0.0 Smoke Mostly clear 30 - - - -
03/02:30pm 31.5 NW 11 14 1013.7 - 0.0 - Mostly clear 10 - - - -
03/02:00pm 31.1 NW 12 15 1014.0 - 0.0 - Mostly clear 10 - - - -
03/01:30pm 30.7 NW 11 15 1014.5 - 0.0 - Mostly clear 10 - - - -
03/01:00pm 30.9 NNW 10 16 1014.9 - 0.0 - Mostly clear 10 - - - -
03/12:30pm 31.5 WNW 8 13 1015.4 - 0.0 - Mostly clear 10 - - - -
03/12:00pm 30.6 NW 7 10 1015.6 S 0.0 Smoke Mostly clear 30 - - - -
03/11:30am 30.6 NNW 7 13 1016.4 - 0.0 - Mostly clear 10 - - - -
03/11:00am 29.5 NW 9 13 1016.8 - 0.0 - Mostly clear 10 - - - -
03/10:30am 30.4 NW 8 12 1017.1 - 0.0 - Mostly clear 10 - - - -
03/10:00am 29.3 NNW 3 5 1017.2 - 0.0 - Mostly clear 8 - - - -
03/09:30am 28.8 NNE 4 6 1017.2 - 0.0 - Mostly clear 8 - - - -
03/09:19am 28.7 SSE 3 4 1017.2 - 0.0 - Mostly clear 8 - - - -
03/09:00am 28.0 N 3 4 1016.7 R 0.0 Smoke Clear 5 - - - -
03/08:30am 26.6 NE 5 6 1016.7 - 0.0 Smoke Mostly clear 5 - - - -
03/08:00am 24.9 NNE 5 5 1016.9 - 0.0 - - 10 - - - -
03/07:30am 23.3 S 5 5 1016.5 - 0.0 - - 10 - - - -
03/07:00am 23.2 SSE 3 6 1016.2 - 0.0 - - 10 - - - -
03/06:30am 22.7 CALM 0 2 1015.7 - 0.0 - Mostly clear 10 - - - -
03/06:00am 21.9 NNE 2 4 1014.7 R 0.0 Smoke Mostly clear 30 - - - -
03/05:30am 21.8 NNW 4 6 1014.4 - 0.0 - - 10 - - - -
03/05:00am 22.8 N 2 4 1014.2 - 0.0 - - 10 - - - -
03/04:30am 22.4 N 4 5 1014.3 - 0.0 - - 10 - - - -
03/04:00am 22.5 N 5 5 1014.3 - 0.0 - - 10 - - - -
03/03:30am 22.7 N 5 6 1014.3 - 0.0 - - 10 - - - -
03/03:00am 23.1 NNE 5 5 1014.1 R 0.0 Smoke Clear 25 - - - -
03/02:30am 23.3 NNE 5 8 1014.5 - 0.0 - - 10 - - - -
03/02:00am 23.1 NNE 5 6 1014.7 - 0.0 - - 10 - - - -
03/01:30am 22.9 NNE 4 4 1014.8 - 0.0 - - 10 - - - -
03/01:00am 23.0 N 4 5 1014.9 - 0.0 - - 10 - - - -
03/12:30am 23.4 WNW 4 4 1015.0 - 0.0 - - 10 - - - -
03/12:00am 23.9 WNW 4 5 1014.8 R 0.0 Smoke Clear 30 - - - -
 
Date/Time
CST
Temp

°C
Wind Pressure Rain
since 9am
mm
Weather Cloud Vis
km
Sea
Height
m
Swell
Dir
 
Speed
knots
Gust
knots
hPa Trend Height
m
Period
s
Dir
02/11:30pm 24.2 W 4 5 1015.1 - 0.0 - - 10 - - - -
02/11:00pm 25.9 WSW 6 6 1015.0 - 0.0 - - 10 - - - -
02/10:30pm 25.8 W 7 7 1015.0 - 0.0 - - 10 - - - -
02/10:00pm 26.1 W 5 6 1014.7 - 0.0 - Partly cloudy 10 - - - -
02/09:30pm 26.3 WNW 6 6 1014.5 - 0.0 - - 10 - - - -
02/09:00pm 26.7 W 6 7 1013.9 R 0.0 Smoke Mostly clear 30 - - - -
02/08:30pm 26.9 W 6 8 1013.9 - 0.0 - - 10 - - - -
02/08:00pm 27.1 WSW 8 10 1013.5 - 0.0 - - 10 - - - -
02/07:30pm 27.4 WSW 9 12 1013.2 - 0.0 - - 10 - - - -
02/07:00pm 27.8 WSW 9 11 1012.8 - 0.0 - - 10 - - - -
02/06:30pm 28.3 W 10 12 1012.6 - 0.0 - Mostly clear 10 - - - -
02/06:00pm 29.0 W 12 15 1012.0 R 0.0 Smoke Mostly clear 30 - - - -
02/05:30pm 29.7 WNW 13 16 1012.0 - 0.0 - Mostly clear 10 - - - -
02/05:00pm 30.0 WNW 15 17 1011.8 - 0.0 - Mostly clear 10 - - - -
02/04:30pm 30.0 WNW 15 18 1011.8 - 0.0 - Mostly clear 10 - - - -
02/04:00pm 30.6 WNW 16 19 1011.8 - 0.0 - Mostly clear 10 - - - -
02/03:30pm 30.6 WNW 16 19 1012.0 - 0.0 - Mostly clear 10 - - - -
02/03:00pm 31.3 NW 17 20 1012.0 F 0.0 Smoke Mostly clear 30 - - - -
02/02:30pm 31.0 NW 15 20 1012.8 - 0.0 - Mostly clear 10 - - - -
02/02:00pm 31.2 NW 15 18 1013.4 - 0.0 - Mostly clear 10 - - - -
02/01:30pm 30.7 NW 14 17 1014.0 - 0.0 - Mostly clear 10 - - - -
02/01:00pm 31.3 NW 11 16 1014.4 - 0.0 - Mostly clear 10 - - - -
02/12:30pm 31.2 WNW 9 14 1015.0 - 0.0 - Mostly clear 10 - - - -
02/12:00pm 30.8 NW 10 13 1015.0 F 0.0 Fine Mostly clear 30 - - - -
02/11:30am 31.0 W 9 12 1015.9 - 0.0 - Mostly clear 10 - - - -
02/11:00am 29.7 WNW 8 11 1016.4 - 0.0 - Mostly clear 10 - - - -
02/10:30am 29.4 WSW 6 9 1016.7 - 0.0 - Mostly clear 10 - - - -
02/10:00am 28.7 WNW 5 8 1017.0 - 0.0 - Mostly clear 10 - - - -
02/09:30am 28.0 S 4 6 1016.8 - 0.0 - Mostly clear 10 - - - -
02/09:00am 27.4 WSW 3 6 1016.4 R 0.0 Fine Mostly clear 30 - - - -
02/08:30am 26.2 S 2 5 1016.4 - 0.0 - Mostly clear 10 - - - -
02/08:00am 25.2 E 4 5 1016.1 - 0.0 - Mostly clear 10 - - - -
02/07:30am 23.0 ESE 4 4 1015.7 - 0.0 - Mostly clear 10 - - - -
02/07:00am 21.4 SE 3 3 1015.3 - 0.0 - Mostly clear 10 - - - -
02/06:30am 22.1 SE 3 4 1014.6 - 0.0 Shallow fog Mostly clear 10 - - - -
02/06:00am 22.2 SSE 4 4 1014.0 S 0.0 Fine Mostly clear 30 - - - -
02/05:30am 22.9 SE 4 5 1014.0 - 0.0 - Mostly clear 10 - - - -
02/05:00am 22.4 SSE 4 5 1014.0 - 0.0 - Mostly clear 10 - - - -
02/04:30am 23.6 S 5 6 1013.8 - 0.0 - Mostly clear 10 - - - -
02/04:00am 23.7 SSW 5 6 1014.0 - 0.0 - Mostly clear 10 - - - -
02/03:30am 22.9 WSW 2 4 1013.9 - 0.0 - Mostly clear 10 - - - -
02/03:00am 22.8 CALM 0 0 1013.6 R 0.0 Fine Mostly clear 30 - - - -
02/02:30am 22.9 W 4 4 1014.0 - 0.0 - Mostly clear 10 - - - -
02/02:00am 23.2 W 3 4 1014.1 - 0.0 - Mostly clear 10 - - - -
02/01:30am 23.8 WNW 2 3 1014.2 - 0.0 - - 10 - - - -
02/01:00am 25.0 W 5 6 1014.3 - 0.0 - - 10 - - - -
02/12:30am 25.2 W 5 7 1014.5 - 0.0 - - 10 - - - -
02/12:00am 25.5 WSW 5 5 1014.4 R 0.0 Fine Mostly clear 30 - - - -
 
Date/Time
CST
Temp

°C
Wind Pressure Rain
since 9am
mm
Weather Cloud Vis
km
Sea
Height
m
Swell
Dir
 
Speed
knots
Gust
knots
hPa Trend Height
m
Period
s
Dir
01/11:30pm 25.8 WSW 6 8 1014.4 - 0.0 - - 10 - - - -
01/11:00pm 25.8 WSW 7 9 1014.4 - 0.0 - - 10 - - - -
01/10:30pm 26.0 WSW 7 8 1014.2 - 0.0 - - 10 - - - -
01/10:00pm 26.1 WSW 8 12 1014.0 - 0.0 - - 10 - - - -
01/09:30pm 26.2 WSW 8 10 1014.0 - 0.0 - - 10 - - - -
01/09:00pm 26.3 WSW 8 10 1013.5 R 0.0 Fine Mostly clear 30 - - - -
01/08:30pm 26.5 WSW 10 13 1013.4 - 0.0 - - 10 - - - -
01/08:00pm 26.6 WSW 11 14 1013.0 - 0.0 - - 10 - - - -
01/07:30pm 26.8 W 12 16 1012.5 - 0.0 - - 10 - - - -
01/07:00pm 27.4 W 9 13 1012.0 - 0.0 - - 10 - - - -
01/06:30pm 28.1 WNW 10 13 1011.9 - 0.0 - - 10 - - - -
01/06:00pm 28.9 WNW 12 15 1011.5 F 0.0 Smoke Mostly clear 25 - - - -
01/05:30pm 29.8 WNW 13 16 1011.6 - 0.0 - Partly cloudy 10 - - - -
01/05:00pm 29.0 WNW 15 17 1011.4 - 0.0 - - 10 - - - -
01/04:30pm 30.5 WNW 11 14 1011.2 - 0.0 - Partly cloudy 10 - - - -
01/04:00pm 31.0 NW 10 14 1011.5 - 0.0 - Partly cloudy 10 - - - -
01/03:30pm 31.7 NW 11 16 1011.7 - 0.0 - - 10 - - - -
01/03:00pm 31.5 NW 10 16 1011.8 R 0.0 Fine Mostly clear 30 - - - -
01/02:30pm 30.4 NNW 8 11 1012.6 - 0.0 - Mostly clear 10 - - - -
01/02:00pm 30.3 WNW 12 15 1012.9 - 0.0 - Mostly clear 10 - - - -
01/01:30pm 30.8 NW 11 14 1013.3 - 0.0 - Mostly clear 10 - - - -
01/01:00pm 30.6 NW 11 16 1013.6 - 0.0 - Mostly clear 10 - - - -
01/12:30pm 28.7 NW 9 14 1014.3 - 0.0 - Mostly clear 10 - - - -
01/12:00pm 28.7 WNW 12 16 1014.3 F 0.0 Fine Partly cloudy 30 - - - -
01/11:30am 29.5 NW 9 14 1015.0 - 0.0 - Partly cloudy 10 - - - -

Other Formats:

Comma delimited format used in spreadsheet applications
http://www.bom.gov.au/fwo/IDD60701/IDD60701.94120.axf

JavaScript Object Notation format (JSON) in row-major order
http://www.bom.gov.au/fwo/IDD60701/IDD60701.94120.json